createdAt,value
2018-04-01T00:01:16.985Z,16.00
2018-04-01T00:03:46.895Z,17.40
2018-04-01T00:06:17.790Z,16.80
2018-04-01T00:08:47.781Z,16.00
2018-04-01T00:11:17.800Z,16.00
2018-04-01T00:13:47.992Z,15.20
2018-04-01T00:16:16.915Z,15.20
2018-04-01T00:18:46.664Z,15.50
2018-04-01T00:21:15.391Z,15.20
2018-04-01T00:23:43.449Z,15.20
2018-04-01T00:26:11.918Z,14.70
2018-04-01T00:28:41.038Z,15.40
2018-04-01T00:31:09.473Z,14.00
2018-04-01T00:33:38.005Z,15.40
2018-04-01T00:36:06.635Z,16.90
2018-04-01T00:38:35.724Z,16.60
2018-04-01T00:41:05.044Z,14.20
2018-04-01T00:43:34.620Z,16.10
2018-04-01T00:46:03.560Z,16.00
2018-04-01T00:48:32.419Z,14.70
2018-04-01T00:51:01.317Z,14.70
2018-04-01T00:53:30.047Z,14.20
2018-04-01T00:55:58.904Z,14.80
2018-04-01T00:58:27.546Z,13.90
2018-04-01T01:00:56.058Z,14.50
2018-04-01T01:03:24.750Z,14.30
2018-04-01T01:05:52.777Z,15.80
2018-04-01T01:08:21.506Z,17.20
2018-04-01T01:10:49.980Z,17.20
2018-04-01T01:13:18.482Z,16.10
2018-04-01T01:15:47.155Z,16.90
2018-04-01T01:18:15.834Z,14.70
2018-04-01T01:20:44.555Z,15.30
2018-04-01T01:23:13.282Z,15.20
2018-04-01T01:25:42.022Z,14.10
2018-04-01T01:28:11.460Z,14.80
2018-04-01T01:30:41.980Z,14.40
2018-04-01T01:33:10.543Z,14.80
2018-04-01T01:35:39.388Z,14.40
2018-04-01T01:38:08.615Z,14.00
2018-04-01T01:40:37.444Z,14.20
2018-04-01T01:43:07.356Z,16.70
2018-04-01T01:45:36.030Z,16.60
2018-04-01T01:48:05.468Z,15.40
2018-04-01T01:50:34.354Z,15.40
2018-04-01T01:53:03.147Z,16.80
2018-04-01T01:55:31.895Z,16.10
2018-04-01T01:58:00.820Z,16.40
2018-04-01T02:00:29.710Z,16.60
2018-04-01T02:02:58.383Z,16.60
2018-04-01T02:05:27.078Z,15.90
2018-04-01T02:07:56.420Z,16.90
2018-04-01T02:10:25.058Z,17.00
2018-04-01T02:12:55.074Z,19.10
2018-04-01T02:15:24.261Z,19.10
2018-04-01T02:17:53.647Z,22.10
2018-04-01T02:20:22.674Z,22.10
2018-04-01T02:22:53.083Z,21.80
2018-04-01T02:25:21.942Z,21.90
2018-04-01T02:27:51.107Z,23.40
2018-04-01T02:30:20.265Z,22.00
2018-04-01T02:32:49.249Z,24.40
2018-04-01T02:35:18.550Z,23.80
2018-04-01T02:37:47.711Z,26.10
2018-04-01T02:40:18.129Z,26.00
2018-04-01T02:42:47.319Z,27.10
2018-04-01T02:45:15.804Z,27.60
2018-04-01T02:47:45.895Z,28.60
2018-04-01T02:50:14.420Z,29.10
2018-04-01T02:52:42.843Z,30.10
2018-04-01T02:55:11.525Z,31.10
2018-04-01T02:57:40.897Z,33.00
2018-04-01T03:00:09.814Z,32.90
2018-04-01T03:02:39.740Z,33.90
2018-04-01T03:05:08.251Z,34.20
2018-04-01T03:07:36.918Z,35.30
2018-04-01T03:10:05.571Z,35.30
2018-04-01T03:12:34.114Z,35.60
2018-04-01T03:15:02.980Z,36.30
2018-04-01T03:17:31.393Z,36.70
2018-04-01T03:19:59.884Z,36.90
2018-04-01T03:22:28.576Z,37.30
2018-04-01T03:24:57.289Z,37.40
2018-04-01T03:27:26.055Z,37.50
2018-04-01T03:29:54.546Z,38.00
2018-04-01T03:32:23.249Z,38.30
2018-04-01T03:34:51.818Z,39.30
2018-04-01T03:37:22.655Z,40.30
2018-04-01T03:39:51.787Z,40.10
2018-04-01T03:42:20.524Z,42.50
2018-04-01T03:44:50.811Z,42.10
2018-04-01T03:47:19.712Z,40.90
2018-04-01T03:49:48.609Z,41.00
2018-04-01T03:52:19.911Z,42.30
2018-04-01T03:54:49.782Z,42.30
2018-04-01T03:57:19.002Z,43.00
2018-04-01T03:59:47.867Z,40.40
2018-04-01T04:02:18.167Z,37.10
2018-04-01T04:04:48.543Z,35.30
2018-04-01T04:07:17.165Z,35.70
2018-04-01T04:09:46.048Z,35.60
2018-04-01T04:12:14.568Z,36.30
2018-04-01T04:14:43.340Z,35.80
2018-04-01T04:17:11.499Z,36.30
2018-04-01T04:19:40.251Z,35.00
2018-04-01T04:22:09.435Z,35.80
2018-04-01T04:24:38.602Z,35.70
2018-04-01T04:27:07.311Z,37.10
2018-04-01T04:29:35.383Z,37.20
2018-04-01T04:32:03.451Z,37.60
2018-04-01T04:34:31.820Z,38.40
2018-04-01T04:37:01.287Z,39.50
2018-04-01T04:39:29.809Z,41.00
2018-04-01T04:41:59.325Z,41.20
2018-04-01T04:44:27.908Z,41.10
2018-04-01T04:46:56.443Z,41.10
2018-04-01T04:49:25.248Z,43.10
2018-04-01T04:51:53.774Z,42.60
2018-04-01T04:54:21.887Z,42.40
2018-04-01T04:56:51.122Z,43.70
2018-04-01T04:59:20.057Z,43.50
2018-04-01T05:01:48.567Z,44.60
2018-04-01T05:04:17.482Z,44.30
2018-04-01T05:06:46.783Z,45.70
2018-04-01T05:09:15.570Z,45.20
2018-04-01T05:11:44.787Z,45.60
2018-04-01T05:14:13.554Z,45.70
2018-04-01T05:16:42.349Z,46.30
2018-04-01T05:19:11.541Z,46.60
2018-04-01T05:21:40.651Z,47.50
2018-04-01T05:24:09.634Z,47.00
2018-04-01T05:26:39.041Z,47.20
2018-04-01T05:29:07.871Z,49.10
2018-04-01T05:31:36.483Z,48.30
2018-04-01T05:34:05.022Z,50.10
2018-04-01T05:36:33.888Z,50.10
2018-04-01T05:39:02.522Z,50.40
2018-04-01T05:41:32.176Z,52.00
2018-04-01T05:44:01.263Z,51.80
2018-04-01T05:46:29.731Z,51.10
2018-04-01T05:48:58.599Z,51.30
2018-04-01T05:51:27.498Z,51.20
2018-04-01T05:53:56.057Z,51.90
2018-04-01T05:56:25.574Z,52.20
2018-04-01T05:58:55.217Z,52.60
2018-04-01T06:01:23.924Z,52.60
2018-04-01T06:03:53.021Z,53.10
2018-04-01T06:06:24.243Z,54.10
2018-04-01T06:08:52.713Z,53.70
2018-04-01T06:11:21.622Z,54.10
2018-04-01T06:13:50.523Z,54.60
2018-04-01T06:16:19.657Z,55.50
2018-04-01T06:18:49.201Z,54.60
2018-04-01T06:21:18.172Z,54.70
2018-04-01T06:23:46.866Z,54.30
2018-04-01T06:26:15.373Z,55.40
2018-04-01T06:28:44.366Z,55.80
2018-04-01T06:31:13.262Z,56.10
2018-04-01T06:33:41.890Z,55.90
2018-04-01T06:36:10.441Z,56.30
2018-04-01T06:38:39.157Z,56.00
2018-04-01T06:41:08.054Z,56.60
2018-04-01T06:43:36.730Z,56.40
2018-04-01T06:46:05.608Z,56.20
2018-04-01T06:48:34.311Z,56.70
2018-04-01T06:51:03.604Z,57.40
2018-04-01T06:53:32.114Z,57.20
2018-04-01T06:56:01.198Z,57.10
2018-04-01T06:58:29.899Z,56.90
2018-04-01T07:00:58.740Z,57.70
2018-04-01T07:03:28.799Z,57.10
2018-04-01T07:05:57.286Z,57.00
2018-04-01T07:08:26.533Z,58.90
2018-04-01T07:10:55.033Z,57.70
2018-04-01T07:13:23.949Z,58.40
2018-04-01T07:15:52.387Z,57.90
2018-04-01T07:18:22.353Z,58.40
2018-04-01T07:20:51.034Z,58.30
2018-04-01T07:23:19.738Z,59.40
2018-04-01T07:25:48.359Z,58.70
2018-04-01T07:28:16.877Z,58.40
2018-04-01T07:30:45.322Z,58.40
2018-04-01T07:33:14.053Z,59.20
2018-04-01T07:35:43.311Z,58.90
2018-04-01T07:38:11.886Z,59.50
2018-04-01T07:40:40.793Z,59.50
2018-04-01T07:43:09.487Z,60.00
2018-04-01T07:45:37.963Z,59.60
2018-04-01T07:48:06.466Z,59.90
2018-04-01T07:50:35.113Z,60.50
2018-04-01T07:53:04.872Z,60.80
2018-04-01T07:55:33.518Z,60.40
2018-04-01T07:58:02.220Z,60.60
2018-04-01T08:00:30.690Z,61.30
2018-04-01T08:02:59.563Z,61.00
2018-04-01T08:05:28.044Z,61.10
2018-04-01T08:07:56.544Z,60.70
2018-04-01T08:10:25.433Z,61.30
2018-04-01T08:12:54.323Z,61.00
2018-04-01T08:15:22.623Z,61.30
2018-04-01T08:17:51.304Z,61.20
2018-04-01T08:20:19.966Z,61.30
2018-04-01T08:22:49.535Z,61.40
2018-04-01T08:25:18.516Z,61.40
2018-04-01T08:27:47.366Z,61.70
2018-04-01T08:30:17.165Z,62.50
2018-04-01T08:32:46.624Z,61.80
2018-04-01T08:35:15.882Z,61.90
2018-04-01T08:37:44.366Z,61.80
2018-04-01T08:40:12.967Z,61.90
2018-04-01T08:42:42.311Z,61.80
2018-04-01T08:45:11.631Z,62.70
2018-04-01T08:47:41.194Z,61.90
2018-04-01T08:50:10.298Z,62.70
2018-04-01T08:52:39.155Z,62.70
2018-04-01T08:55:08.005Z,62.60
2018-04-01T08:57:37.087Z,62.60
2018-04-01T09:00:08.554Z,62.80
2018-04-01T09:02:36.894Z,63.00
2018-04-01T09:05:05.745Z,62.80
2018-04-01T09:07:34.410Z,62.60
2018-04-01T09:10:03.121Z,62.80
2018-04-01T09:12:32.399Z,63.40
2018-04-01T09:15:01.153Z,63.70
2018-04-01T09:17:30.014Z,64.00
2018-04-01T09:19:58.848Z,64.80
2018-04-01T09:22:28.714Z,64.70
2018-04-01T09:24:57.359Z,64.40
2018-04-01T09:27:26.855Z,64.80
2018-04-01T09:29:55.513Z,65.00
2018-04-01T09:32:25.256Z,66.00
2018-04-01T09:34:53.922Z,66.40
2018-04-01T09:37:22.680Z,67.30
2018-04-01T09:39:51.080Z,66.80
2018-04-01T09:42:19.590Z,67.80
2018-04-01T09:44:49.032Z,67.50
2018-04-01T09:47:17.540Z,67.40
2018-04-01T09:49:47.214Z,67.50
2018-04-01T09:52:15.747Z,67.40
2018-04-01T09:54:44.200Z,67.50
2018-04-01T09:57:12.865Z,68.50
2018-04-01T09:59:41.498Z,69.40
2018-04-01T10:02:10.566Z,69.40
2018-04-01T10:04:39.668Z,70.00
2018-04-01T10:07:09.007Z,70.20
2018-04-01T10:09:38.043Z,72.70
2018-04-01T10:12:07.355Z,73.40
2018-04-01T10:14:36.859Z,71.40
2018-04-01T10:17:06.416Z,72.70
2018-04-01T10:19:36.697Z,74.80
2018-04-01T10:22:05.970Z,74.90
2018-04-01T10:24:35.625Z,74.90
2018-04-01T10:27:04.687Z,75.20
2018-04-01T10:29:34.384Z,74.60
2018-04-01T10:32:03.694Z,74.60
2018-04-01T10:34:32.985Z,74.80
2018-04-01T10:37:02.285Z,74.60
2018-04-01T10:39:31.601Z,74.70
2018-04-01T10:42:00.886Z,74.20
2018-04-01T10:44:30.206Z,73.80
2018-04-01T10:47:00.530Z,72.60
2018-04-01T10:49:31.080Z,72.60
2018-04-01T10:52:00.550Z,70.50
2018-04-01T10:54:29.487Z,70.40
2018-04-01T10:56:58.128Z,69.30
2018-04-01T10:59:26.614Z,69.80
2018-04-01T11:01:55.294Z,70.30
2018-04-01T11:04:23.796Z,70.70
2018-04-01T11:06:53.097Z,68.50
2018-04-01T11:09:22.197Z,68.00
2018-04-01T11:11:51.100Z,67.60
2018-04-01T11:14:20.454Z,67.70
2018-04-01T11:16:50.900Z,69.40
2018-04-01T11:19:19.547Z,68.80
2018-04-01T11:21:48.068Z,68.50
2018-04-01T11:24:16.932Z,68.80
2018-04-01T11:26:45.443Z,68.60
2018-04-01T11:29:13.906Z,69.20
2018-04-01T11:31:42.618Z,69.20
2018-04-01T11:34:11.352Z,68.60
2018-04-01T11:36:39.677Z,69.20
2018-04-01T11:39:09.770Z,69.60
2018-04-01T11:41:38.452Z,69.40
2018-04-01T11:44:07.066Z,69.30
2018-04-01T11:46:36.088Z,69.40
2018-04-01T11:49:04.632Z,69.00
2018-04-01T11:51:33.338Z,67.60
2018-04-01T11:54:02.081Z,67.60
2018-04-01T11:56:30.768Z,69.20
2018-04-01T11:58:59.682Z,68.40
2018-04-01T12:01:28.569Z,69.50
2018-04-01T12:03:57.430Z,68.70
2018-04-01T12:06:26.123Z,67.30
2018-04-01T12:08:55.774Z,68.60
2018-04-01T12:11:24.231Z,68.60
2018-04-01T12:13:53.192Z,67.00
2018-04-01T12:16:22.008Z,67.00
2018-04-01T12:18:50.777Z,67.00
2018-04-01T12:21:19.516Z,66.90
2018-04-01T12:23:47.928Z,66.30
2018-04-01T12:26:16.512Z,67.40
2018-04-01T12:28:44.974Z,67.80
2018-04-01T12:31:13.469Z,67.50
2018-04-01T12:33:42.361Z,67.80
2018-04-01T12:36:11.046Z,67.20
2018-04-01T12:38:39.765Z,67.20
2018-04-01T12:41:08.412Z,67.40
2018-04-01T12:43:38.560Z,67.60
2018-04-01T12:46:07.048Z,67.60
2018-04-01T12:48:35.519Z,65.70
2018-04-01T12:51:04.198Z,66.10
2018-04-01T12:53:33.683Z,66.90
2018-04-01T12:56:04.012Z,67.80
2018-04-01T12:58:33.882Z,66.70
2018-04-01T13:01:04.112Z,66.40
2018-04-01T13:03:32.777Z,65.90
2018-04-01T13:06:01.277Z,66.50
2018-04-01T13:08:29.908Z,67.80
2018-04-01T13:10:58.596Z,67.60
2018-04-01T13:13:27.456Z,67.30
2018-04-01T13:15:56.388Z,66.90
2018-04-01T13:18:24.843Z,68.20
2018-04-01T13:20:53.570Z,67.20
2018-04-01T13:23:23.059Z,66.60
2018-04-01T13:25:51.516Z,67.70
2018-04-01T13:28:20.204Z,66.10
2018-04-01T13:30:48.685Z,65.70
2018-04-01T13:33:17.411Z,65.70
2018-04-01T13:35:45.913Z,66.20
2018-04-01T13:38:14.718Z,65.80
2018-04-01T13:40:44.234Z,64.80
2018-04-01T13:43:12.977Z,66.20
2018-04-01T13:45:41.527Z,65.00
2018-04-01T13:48:10.736Z,64.80
2018-04-01T13:50:39.200Z,64.80
2018-04-01T13:53:08.366Z,66.50
2018-04-01T13:55:36.849Z,64.90
2018-04-01T13:58:05.169Z,64.60
2018-04-01T14:00:33.616Z,64.70
2018-04-01T14:03:02.283Z,64.40
2018-04-01T14:05:30.794Z,64.70
2018-04-01T14:07:59.260Z,64.30
2018-04-01T14:10:28.366Z,65.10
2018-04-01T14:12:57.060Z,64.00
2018-04-01T14:15:25.537Z,64.70
2018-04-01T14:17:54.545Z,65.80
2018-04-01T14:20:23.457Z,65.90
2018-04-01T14:22:52.072Z,65.00
2018-04-01T14:25:20.555Z,64.70
2018-04-01T14:27:49.900Z,64.00
2018-04-01T14:30:19.627Z,63.90
2018-04-01T14:32:48.087Z,64.20
2018-04-01T14:35:16.787Z,64.80
2018-04-01T14:37:45.242Z,64.40
2018-04-01T14:40:14.426Z,64.60
2018-04-01T14:42:42.920Z,65.40
2018-04-01T14:45:11.988Z,63.30
2018-04-01T14:47:42.519Z,63.40
2018-04-01T14:50:11.019Z,63.50
2018-04-01T14:52:39.501Z,65.50
2018-04-01T14:55:07.982Z,65.10
2018-04-01T14:57:36.660Z,64.40
2018-04-01T15:00:06.526Z,63.70
2018-04-01T15:02:35.063Z,64.10
2018-04-01T15:05:03.579Z,64.80
2018-04-01T15:07:32.256Z,63.50
2018-04-01T15:10:01.477Z,65.20
2018-04-01T15:12:30.067Z,65.10
2018-04-01T15:15:00.399Z,63.90
2018-04-01T15:17:29.135Z,65.90
2018-04-01T15:19:58.160Z,64.00
2018-04-01T15:22:26.919Z,64.20
2018-04-01T15:24:55.526Z,65.50
2018-04-01T15:27:24.293Z,65.00
2018-04-01T15:29:53.156Z,64.80
2018-04-01T15:32:21.592Z,64.00
2018-04-01T15:34:50.335Z,64.80
2018-04-01T15:37:18.752Z,64.10
2018-04-01T15:39:48.144Z,64.20
2018-04-01T15:42:17.013Z,64.20
2018-04-01T15:44:45.448Z,65.80
2018-04-01T15:47:13.787Z,64.70
2018-04-01T15:49:42.411Z,64.40
2018-04-01T15:52:11.404Z,63.70
2018-04-01T15:54:40.198Z,63.50
2018-04-01T15:57:09.290Z,63.60
2018-04-01T15:59:38.136Z,63.10
2018-04-01T16:02:06.941Z,62.60
2018-04-01T16:04:35.533Z,64.20
2018-04-01T16:07:04.973Z,63.90
2018-04-01T16:09:33.614Z,63.80
2018-04-01T16:12:03.045Z,62.40
2018-04-01T16:14:32.215Z,62.40
2018-04-01T16:17:01.637Z,64.50
2018-04-01T16:19:30.923Z,64.50
2018-04-01T16:22:01.259Z,64.20
2018-04-01T16:24:30.027Z,65.00
2018-04-01T16:26:58.544Z,64.20
2018-04-01T16:29:27.247Z,65.40
2018-04-01T16:31:56.718Z,63.70
2018-04-01T16:34:25.630Z,63.80
2018-04-01T16:36:54.325Z,64.10
2018-04-01T16:39:22.998Z,65.60
2018-04-01T16:41:51.944Z,63.70
2018-04-01T16:44:20.447Z,66.30
2018-04-01T16:46:49.116Z,66.60
2018-04-01T16:49:17.874Z,66.60
2018-04-01T16:51:46.744Z,68.50
2018-04-01T16:54:15.496Z,67.50
2018-04-01T16:56:44.206Z,67.70
2018-04-01T16:59:12.665Z,67.00
2018-04-01T17:01:41.390Z,67.60
2018-04-01T17:04:10.662Z,68.20
2018-04-01T17:06:39.161Z,68.00
2018-04-01T17:09:08.000Z,66.20
2018-04-01T17:11:36.658Z,67.40
2018-04-01T17:14:05.625Z,67.30
2018-04-01T17:16:34.266Z,69.10
2018-04-01T17:19:03.149Z,67.80
2018-04-01T17:21:31.840Z,68.10
2018-04-01T17:24:01.627Z,67.30
2018-04-01T17:26:30.433Z,67.40
2018-04-01T17:28:59.909Z,66.70
2018-04-01T17:31:29.649Z,64.90
2018-04-01T17:33:58.707Z,67.50
2018-04-01T17:36:27.390Z,65.10
2018-04-01T17:38:57.225Z,66.90
2018-04-01T17:41:27.138Z,64.90
2018-04-01T17:43:55.900Z,64.90
2018-04-01T17:46:24.526Z,65.90
2018-04-01T17:48:53.087Z,65.70
2018-04-01T17:51:22.080Z,68.70
2018-04-01T17:53:51.707Z,67.50
2018-04-01T17:56:20.178Z,67.20
2018-04-01T17:58:49.568Z,65.70
2018-04-01T18:01:18.891Z,66.90
2018-04-01T18:03:48.042Z,66.40
2018-04-01T18:06:17.201Z,67.20
2018-04-01T18:08:45.823Z,68.00
2018-04-01T18:11:14.428Z,66.50
2018-04-01T18:13:43.252Z,64.00
2018-04-01T18:16:11.342Z,66.60
2018-04-01T18:18:39.972Z,66.40
2018-04-01T18:21:08.928Z,65.20
2018-04-01T18:23:37.538Z,63.60
2018-04-01T18:26:07.672Z,63.10
2018-04-01T18:28:36.487Z,63.10
2018-04-01T18:31:06.118Z,65.40
2018-04-01T18:33:34.921Z,62.60
2018-04-01T18:36:04.000Z,62.80
2018-04-01T18:38:33.032Z,63.40
2018-04-01T18:41:02.558Z,63.00
2018-04-01T18:43:31.496Z,61.40
2018-04-01T18:45:59.726Z,61.50
2018-04-01T18:48:28.653Z,64.10
2018-04-01T18:50:57.317Z,62.10
2018-04-01T18:53:26.812Z,61.70
2018-04-01T18:55:56.912Z,56.20
2018-04-01T18:58:26.012Z,59.10
2018-04-01T19:00:54.642Z,59.10
2018-04-01T19:03:24.745Z,59.40
2018-04-01T19:05:53.058Z,57.80
2018-04-01T19:08:21.931Z,59.60
2018-04-01T19:10:50.478Z,59.90
2018-04-01T19:13:19.188Z,54.90
2018-04-01T19:15:49.761Z,53.60
2018-04-01T19:18:20.500Z,53.70
2018-04-01T19:20:50.368Z,57.10
2018-04-01T19:23:19.804Z,53.00
2018-04-01T19:25:49.932Z,49.70
2018-04-01T19:28:19.335Z,49.10
2018-04-01T19:30:48.982Z,54.60
2018-04-01T19:33:18.492Z,55.20
2018-04-01T19:35:47.996Z,51.30
2018-04-01T19:38:17.268Z,48.30
2018-04-01T19:40:46.650Z,52.10
2018-04-01T19:43:16.278Z,46.40
2018-04-01T19:45:46.114Z,45.50
2018-04-01T19:48:15.869Z,46.10
2018-04-01T19:50:45.717Z,45.50
2018-04-01T19:53:15.235Z,45.50
2018-04-01T19:55:45.019Z,44.30
2018-04-01T19:58:14.200Z,45.20
2018-04-01T20:00:44.415Z,44.00
2018-04-01T20:03:14.182Z,45.90
2018-04-01T20:05:44.035Z,42.60
2018-04-01T20:08:14.184Z,45.80
2018-04-01T20:10:43.474Z,42.20
2018-04-01T20:13:12.640Z,47.50
2018-04-01T20:15:42.726Z,43.10
2018-04-01T20:18:12.190Z,43.10
2018-04-01T20:20:41.530Z,42.90
2018-04-01T20:23:11.190Z,43.10
2018-04-01T20:25:40.946Z,45.50
2018-04-01T20:28:10.812Z,45.10
2018-04-01T20:30:40.056Z,49.70
2018-04-01T20:33:09.669Z,44.70
2018-04-01T20:35:39.323Z,45.80
2018-04-01T20:38:09.247Z,46.00
2018-04-01T20:40:39.567Z,44.70
2018-04-01T20:43:10.221Z,46.80
2018-04-01T20:45:40.046Z,46.70
2018-04-01T20:48:09.696Z,46.40
2018-04-01T20:50:40.532Z,45.90
2018-04-01T20:53:10.193Z,45.80
2018-04-01T20:55:40.240Z,46.50
2018-04-01T20:58:09.716Z,46.20
2018-04-01T21:00:39.438Z,48.90
2018-04-01T21:03:09.371Z,47.30
2018-04-01T21:05:38.742Z,49.50
2018-04-01T21:08:07.966Z,48.30
2018-04-01T21:10:37.585Z,49.10
2018-04-01T21:13:07.178Z,48.20
2018-04-01T21:15:36.520Z,48.80
2018-04-01T21:18:05.952Z,49.10
2018-04-01T21:20:35.308Z,46.80
2018-04-01T21:23:04.630Z,46.20
2018-04-01T21:25:34.957Z,48.30
2018-04-01T21:28:04.644Z,47.50
2018-04-01T21:30:34.680Z,46.30
2018-04-01T21:33:04.605Z,46.10
2018-04-01T21:35:34.244Z,47.10
2018-04-01T21:38:03.712Z,47.30
2018-04-01T21:40:32.981Z,44.80
2018-04-01T21:43:04.224Z,48.80
2018-04-01T21:45:34.456Z,43.60
2018-04-01T21:48:03.836Z,43.50
2018-04-01T21:50:33.863Z,45.00
2018-04-01T21:53:03.153Z,45.10
2018-04-01T21:55:32.034Z,47.80
2018-04-01T21:58:01.445Z,45.10
2018-04-01T22:00:31.134Z,44.00
2018-04-01T22:03:00.652Z,44.20
2018-04-01T22:05:30.316Z,43.80
2018-04-01T22:07:59.940Z,43.60
2018-04-01T22:10:29.381Z,46.00
2018-04-01T22:12:59.805Z,46.80
2018-04-01T22:15:30.034Z,46.40
2018-04-01T22:17:59.599Z,46.40
2018-04-01T22:20:29.073Z,46.40
2018-04-01T22:23:09.240Z,47.10
2018-04-01T22:25:38.455Z,48.00
2018-04-01T22:28:08.705Z,48.70
2018-04-01T22:30:39.215Z,47.90
2018-04-01T22:33:10.195Z,47.50
2018-04-01T22:35:40.801Z,47.20
2018-04-01T22:38:11.575Z,49.70
2018-04-01T22:40:43.158Z,48.60
2018-04-01T22:43:13.719Z,49.70
2018-04-01T22:45:43.867Z,47.30
2018-04-01T22:48:15.312Z,47.00
2018-04-01T22:50:45.570Z,48.80
2018-04-01T22:53:15.035Z,50.10
2018-04-01T22:55:44.232Z,50.80
2018-04-01T22:58:13.195Z,50.10
2018-04-01T23:00:43.481Z,47.10
2018-04-01T23:03:13.583Z,56.50
2018-04-01T23:05:44.904Z,56.90
2018-04-01T23:08:13.751Z,50.80
2018-04-01T23:10:43.124Z,51.50
2018-04-01T23:13:12.697Z,48.40
2018-04-01T23:15:42.690Z,52.20
2018-04-01T23:18:13.297Z,56.50
2018-04-01T23:20:43.695Z,56.40
2018-04-01T23:23:13.488Z,54.30
2018-04-01T23:25:45.557Z,51.60
2018-04-01T23:28:16.159Z,54.30
2018-04-01T23:30:48.060Z,57.80
2018-04-01T23:33:17.985Z,58.90
2018-04-01T23:35:49.273Z,59.10
2018-04-01T23:38:19.650Z,61.70
2018-04-01T23:40:48.863Z,62.50
2018-04-01T23:43:18.561Z,63.60
2018-04-01T23:45:47.859Z,62.50
2018-04-01T23:48:18.325Z,63.40
2018-04-01T23:50:47.870Z,63.00
2018-04-01T23:53:17.406Z,64.10
2018-04-01T23:55:49.156Z,65.40
2018-04-01T23:58:18.943Z,68.10
